Andalusia, Illinois
Current Conditions -  °F | °C
As of 1:52 PM on Thursday 23 Oct 2014 (Local Time) from KMLI Reporting Station
Broken Clouds Broken Clouds  
Wind Chill: 60°   Ceiling: 3800
Heat Index: 60°   Visibility: 10mi
Dew Point: 46°   Wind: 8mph
Humidity: 60%   Direction: 190°S
Pressure: 30.05"   Gusts: NA
Location:  41.44°N, 90.72°W
Report Text: KMLI 231852Z 19007KT 10SM BKN038 16/08 A3005 RMK AO2 SLP179 T01560078
Loading
Personal Weather Stations






























Interactive Weather Map
Tropical Storm Tracking
New forecast layout! Learn more

10-Day Weather Forecast

Advertisements
Track Severe Weather on mobile